Time;durP1;ratioP1;P1;durP2;ratioP2;P2;SDS_P1;SDS_P2;PMS_P1;PMS_P2;Temp;Humidity;BMP_temperature;BMP_pressure;BME280_temperature;BME280_humidity;BME280_pressure;Samples;Min_cycle;Max_cycle;Signal;HPM_P1;HPM_P2
2022/09/11 00:01:24;;;;;;;3.83;3.60;;;14.60;99.90;;;;;;478952;248;29242;-70
2022/09/11 00:03:27;;;;;;;3.87;3.53;;;14.60;99.90;;;;;;478935;248;28426;-70
2022/09/11 00:05:27;;;;;;;5.70;4.40;;;14.60;99.90;;;;;;478897;248;28549;-70
2022/09/11 00:07:29;;;;;;;4.30;4.00;;;14.60;99.90;;;;;;478838;248;28552;-70
2022/09/11 00:09:29;;;;;;;3.80;3.50;;;14.60;99.90;;;;;;478889;248;28302;-70
2022/09/11 00:11:31;;;;;;;4.23;3.93;;;14.60;99.90;;;;;;478952;248;28250;-71
2022/09/11 00:13:32;;;;;;;4.60;4.20;;;14.60;99.90;;;;;;478945;248;28203;-70
2022/09/11 00:15:33;;;;;;;5.60;4.90;;;14.60;99.90;;;;;;478951;248;28764;-70
2022/09/11 00:17:34;;;;;;;5.33;4.80;;;14.60;99.90;;;;;;478915;248;28378;-71
2022/09/11 00:19:35;;;;;;;5.30;4.77;;;14.60;99.90;;;;;;478974;248;28445;-72
2022/09/11 00:21:37;;;;;;;5.90;4.33;;;14.60;99.90;;;;;;478956;248;28956;-71
2022/09/11 00:23:38;;;;;;;4.20;3.90;;;14.60;99.90;;;;;;478960;247;29202;-70
2022/09/11 00:25:39;;;;;;;4.50;4.20;;;14.60;99.90;;;;;;478986;248;28862;-70
2022/09/11 00:27:40;;;;;;;5.10;4.53;;;14.60;99.90;;;;;;478919;248;28701;-70
2022/09/11 00:29:42;;;;;;;3.90;3.60;;;14.60;99.90;;;;;;478960;248;28428;-70
2022/09/11 00:31:43;;;;;;;4.33;3.97;;;14.60;99.90;;;;;;478974;248;28374;-72
2022/09/11 00:33:44;;;;;;;4.87;4.47;;;14.60;99.90;;;;;;478844;248;28540;-70
2022/09/11 00:35:45;;;;;;;5.20;4.10;;;14.60;99.90;;;;;;478939;248;28356;-70
2022/09/11 00:37:47;;;;;;;4.40;4.00;;;14.60;99.90;;;;;;478868;248;28415;-69
2022/09/11 00:39:49;;;;;;;4.00;3.60;;;14.60;99.90;;;;;;478962;248;28433;-70
2022/09/11 00:41:49;;;;;;;4.03;3.67;;;14.60;99.90;;;;;;478959;247;28449;-71
2022/09/11 00:43:50;;;;;;;4.60;4.03;;;14.70;99.90;;;;;;478957;248;28728;-70
2022/09/11 00:45:52;;;;;;;5.67;5.10;;;14.60;99.90;;;;;;478923;248;28860;-69
2022/09/11 00:47:53;;;;;;;5.10;4.60;;;14.60;99.90;;;;;;478891;248;29491;-70
2022/09/11 00:49:54;;;;;;;5.40;4.90;;;14.70;99.90;;;;;;478941;248;28952;-70
2022/09/11 00:51:55;;;;;;;4.60;4.20;;;14.60;99.90;;;;;;478921;248;28827;-71
2022/09/11 00:53:57;;;;;;;5.60;5.10;;;14.60;99.90;;;;;;478954;248;28548;-70
2022/09/11 00:55:58;;;;;;;5.40;4.90;;;14.60;99.90;;;;;;478928;248;28823;-69
2022/09/11 00:57:59;;;;;;;5.20;4.70;;;14.60;99.90;;;;;;478929;248;28304;-70
2022/09/11 01:00:00;;;;;;;6.30;5.30;;;14.60;99.90;;;;;;478980;247;28800;-70
2022/09/11 01:02:02;;;;;;;4.80;4.30;;;14.60;99.90;;;;;;478801;248;28481;-72
2022/09/11 01:04:03;;;;;;;5.53;3.93;;;14.60;99.90;;;;;;478986;248;28532;-71
2022/09/11 01:06:05;;;;;;;4.40;4.00;;;14.60;99.90;;;;;;478896;248;28504;-71
2022/09/11 01:08:05;;;;;;;4.43;4.03;;;14.60;99.90;;;;;;478892;248;28518;-70
2022/09/11 01:10:07;;;;;;;5.00;4.60;;;14.60;99.90;;;;;;478944;248;29256;-70
2022/09/11 01:12:08;;;;;;;5.10;4.70;;;14.50;99.90;;;;;;478970;246;28860;-70
2022/09/11 01:14:09;;;;;;;5.40;4.57;;;14.50;99.90;;;;;;478964;248;28863;-70
2022/09/11 01:16:11;;;;;;;4.33;3.93;;;14.60;99.90;;;;;;478841;248;29276;-70
2022/09/11 01:18:12;;;;;;;4.30;4.00;;;14.60;99.90;;;;;;478914;246;28333;-69
2022/09/11 01:20:13;;;;;;;4.40;4.00;;;14.50;99.90;;;;;;478947;248;28207;-70
2022/09/11 01:22:14;;;;;;;5.50;5.00;;;14.50;99.90;;;;;;478958;248;28455;-71
2022/09/11 01:24:16;;;;;;;4.90;4.50;;;14.50;99.90;;;;;;478954;248;28534;-70
2022/09/11 01:26:18;;;;;;;5.00;4.23;;;14.50;99.90;;;;;;478873;248;28832;-70
2022/09/11 01:28:18;;;;;;;4.93;4.43;;;14.50;99.90;;;;;;478859;248;28740;-72
2022/09/11 01:30:19;;;;;;;4.03;3.63;;;14.50;99.90;;;;;;478959;248;28409;-70
2022/09/11 01:32:21;;;;;;;6.20;4.50;;;14.50;99.90;;;;;;478949;248;28452;-70
2022/09/11 01:34:22;;;;;;;4.93;4.13;;;14.50;99.90;;;;;;478913;246;28843;-70
2022/09/11 01:36:23;;;;;;;4.10;3.80;;;14.50;99.90;;;;;;478879;248;29264;-70
2022/09/11 01:38:24;;;;;;;4.20;3.90;;;14.50;99.90;;;;;;478960;248;28918;-72
2022/09/11 01:40:26;;;;;;;4.40;4.00;;;14.50;99.90;;;;;;478956;248;28776;-69
2022/09/11 01:42:27;;;;;;;4.30;3.90;;;14.50;99.90;;;;;;478953;248;28781;-71
2022/09/11 01:44:28;;;;;;;4.37;3.97;;;14.50;99.90;;;;;;478928;248;28505;-70
2022/09/11 01:46:29;;;;;;;4.53;4.10;;;14.40;99.90;;;;;;478880;248;28453;-69
2022/09/11 01:48:31;;;;;;;5.50;4.20;;;14.50;99.90;;;;;;478940;248;28343;-73
2022/09/11 01:50:32;;;;;;;4.50;4.10;;;14.40;99.90;;;;;;478961;248;28921;-70
2022/09/11 01:52:33;;;;;;;4.57;4.13;;;14.40;99.90;;;;;;478947;248;28136;-69
2022/09/11 01:54:35;;;;;;;5.43;4.70;;;14.50;99.90;;;;;;478937;248;28358;-69
2022/09/11 01:56:36;;;;;;;4.20;3.90;;;14.50;99.90;;;;;;478892;248;28450;-70
2022/09/11 01:58:37;;;;;;;6.53;4.30;;;14.50;99.90;;;;;;478992;248;28460;-72
2022/09/11 02:00:38;;;;;;;5.87;4.50;;;14.50;99.90;;;;;;478964;248;28875;-70
2022/09/11 02:02:39;;;;;;;4.93;4.53;;;14.40;99.90;;;;;;478962;248;29342;-70
2022/09/11 02:04:41;;;;;;;5.73;4.70;;;14.50;99.90;;;;;;478940;248;28850;-69
2022/09/11 02:06:42;;;;;;;5.13;4.70;;;14.40;99.90;;;;;;478929;248;28438;-70
2022/09/11 02:08:44;;;;;;;6.20;5.33;;;14.50;99.90;;;;;;478947;248;28468;-71
2022/09/11 02:10:45;;;;;;;6.30;4.63;;;14.40;99.90;;;;;;478959;248;28255;-69
2022/09/11 02:12:46;;;;;;;5.63;5.10;;;14.40;99.90;;;;;;478967;248;28461;-70
2022/09/11 02:14:47;;;;;;;5.23;4.83;;;14.40;99.90;;;;;;478958;248;28219;-70
2022/09/11 02:16:49;;;;;;;7.83;5.33;;;14.50;99.90;;;;;;478929;248;28319;-70
2022/09/11 02:18:49;;;;;;;5.43;4.93;;;14.50;99.90;;;;;;478982;248;28356;-70
2022/09/11 02:20:51;;;;;;;5.20;4.80;;;14.50;99.90;;;;;;478964;248;28235;-69
2022/09/11 02:22:52;;;;;;;5.07;4.67;;;14.50;99.90;;;;;;478946;248;28768;-70
2022/09/11 02:24:53;;;;;;;6.80;4.60;;;14.50;99.90;;;;;;478983;248;29749;-72
2022/09/11 02:26:54;;;;;;;5.73;4.97;;;14.50;99.90;;;;;;478893;248;29221;-70
2022/09/11 02:28:56;;;;;;;6.17;5.57;;;14.50;99.90;;;;;;478968;248;28956;-70
2022/09/11 02:30:57;;;;;;;4.93;4.37;;;14.50;99.90;;;;;;478959;248;29003;-70
2022/09/11 02:32:58;;;;;;;5.00;4.50;;;14.50;99.90;;;;;;478928;247;28327;-70
2022/09/11 02:34:59;;;;;;;8.43;5.40;;;14.50;99.90;;;;;;478994;248;28340;-73
2022/09/11 02:37:02;;;;;;;5.30;4.70;;;14.50;99.90;;;;;;478907;248;28317;-70
2022/09/11 02:39:02;;;;;;;4.77;4.37;;;14.50;99.90;;;;;;478943;248;28531;-71
2022/09/11 02:41:03;;;;;;;4.40;4.00;;;14.50;99.90;;;;;;478953;248;28279;-70
2022/09/11 02:43:04;;;;;;;4.53;4.13;;;14.50;99.90;;;;;;478956;248;28364;-70
2022/09/11 02:45:06;;;;;;;4.63;4.20;;;14.50;99.90;;;;;;478992;248;28731;-74
2022/09/11 02:47:07;;;;;;;4.50;4.10;;;14.50;99.90;;;;;;478931;248;28747;-69
2022/09/11 02:49:08;;;;;;;4.40;4.03;;;14.50;99.90;;;;;;478969;248;29271;-71
2022/09/11 02:51:09;;;;;;;3.90;3.60;;;14.50;99.90;;;;;;478987;248;28764;-71
2022/09/11 02:53:11;;;;;;;4.10;3.80;;;14.50;99.90;;;;;;478965;248;29238;-70
2022/09/11 02:55:12;;;;;;;4.07;3.77;;;14.50;99.90;;;;;;479009;248;28955;-72
2022/09/11 02:57:13;;;;;;;5.73;3.80;;;14.50;99.90;;;;;;478951;248;28524;-69
2022/09/11 02:59:16;;;;;;;4.07;3.63;;;14.50;99.90;;;;;;478989;248;28564;-70
2022/09/11 03:01:16;;;;;;;4.40;4.00;;;14.50;99.90;;;;;;478879;248;28471;-69
2022/09/11 03:03:20;;;;;;;4.27;3.87;;;14.50;99.90;;;;;;478949;248;28707;-70
2022/09/11 03:05:18;;;;;;;4.13;3.73;;;14.50;99.90;;;;;;478796;248;28768;-73
2022/09/11 03:07:19;;;;;;;3.67;3.37;;;14.50;99.90;;;;;;478905;248;28472;-69
2022/09/11 03:09:21;;;;;;;4.00;3.70;;;14.50;99.90;;;;;;478947;248;28437;-70
2022/09/11 03:11:22;;;;;;;4.23;3.70;;;14.50;99.90;;;;;;478969;248;28310;-70
2022/09/11 03:13:23;;;;;;;3.63;3.33;;;14.50;99.90;;;;;;478973;248;28415;-69
2022/09/11 03:15:24;;;;;;;3.93;3.63;;;14.50;99.90;;;;;;478982;248;28829;-72
2022/09/11 03:17:26;;;;;;;4.80;4.07;;;14.50;99.90;;;;;;478842;248;28788;-72
2022/09/11 03:19:27;;;;;;;5.17;3.53;;;14.50;99.90;;;;;;478960;248;28835;-70
2022/09/11 03:21:28;;;;;;;4.40;4.00;;;14.50;99.90;;;;;;478968;248;28666;-70
2022/09/11 03:23:29;;;;;;;3.40;3.10;;;14.50;99.90;;;;;;478973;248;28485;-70
2022/09/11 03:25:31;;;;;;;3.77;3.47;;;14.50;99.90;;;;;;478967;246;28756;-71
2022/09/11 03:27:32;;;;;;;4.07;3.67;;;14.50;99.90;;;;;;478877;248;28725;-70
2022/09/11 03:29:33;;;;;;;3.80;3.50;;;14.40;99.90;;;;;;478942;246;28457;-69
2022/09/11 03:31:34;;;;;;;4.10;3.80;;;14.40;99.90;;;;;;478968;247;28586;-70
2022/09/11 03:33:36;;;;;;;4.40;4.00;;;14.40;99.90;;;;;;478963;248;28819;-69
2022/09/11 03:35:37;;;;;;;3.90;3.60;;;14.40;99.90;;;;;;478951;248;28411;-70
2022/09/11 03:37:38;;;;;;;4.80;4.10;;;14.30;99.90;;;;;;478887;248;28390;-69
2022/09/11 03:39:39;;;;;;;4.20;3.80;;;14.30;99.90;;;;;;478971;248;29003;-69
2022/09/11 03:41:41;;;;;;;3.70;3.40;;;14.30;99.90;;;;;;478964;248;28890;-72
2022/09/11 03:43:42;;;;;;;4.37;4.00;;;14.30;99.90;;;;;;478965;248;28443;-70
2022/09/11 03:45:43;;;;;;;3.93;3.63;;;14.30;99.90;;;;;;478949;248;28508;-69
2022/09/11 03:47:44;;;;;;;4.00;3.70;;;14.30;99.90;;;;;;478864;248;28470;-69
2022/09/11 03:49:47;;;;;;;3.67;3.37;;;14.20;99.90;;;;;;478920;248;28532;-70
2022/09/11 03:51:47;;;;;;;4.73;3.77;;;14.20;99.90;;;;;;478915;248;28777;-72
2022/09/11 03:53:48;;;;;;;4.10;3.80;;;14.20;99.90;;;;;;478961;248;28437;-70
2022/09/11 03:55:49;;;;;;;4.03;3.73;;;14.20;99.90;;;;;;478949;248;29219;-70
2022/09/11 03:57:51;;;;;;;4.70;4.20;;;14.20;99.90;;;;;;478909;248;29179;-69
2022/09/11 03:59:54;;;;;;;4.47;4.17;;;14.20;99.90;;;;;;478944;248;28966;-70
2022/09/11 04:01:53;;;;;;;4.80;4.40;;;14.20;99.90;;;;;;478794;248;28502;-73
2022/09/11 04:03:54;;;;;;;4.50;4.10;;;14.20;99.90;;;;;;478943;248;28348;-69
2022/09/11 04:05:56;;;;;;;5.23;4.03;;;14.20;99.90;;;;;;478903;248;28442;-69
2022/09/11 04:07:58;;;;;;;5.37;4.87;;;14.20;99.90;;;;;;478826;248;28511;-69
2022/09/11 04:09:58;;;;;;;5.27;4.87;;;14.20;99.90;;;;;;478864;248;28551;-69
2022/09/11 04:12:00;;;;;;;5.40;4.90;;;14.30;99.90;;;;;;478938;248;28337;-73
2022/09/11 04:14:01;;;;;;;4.63;4.23;;;14.30;99.90;;;;;;478916;248;28305;-69
2022/09/11 04:16:02;;;;;;;6.17;5.23;;;14.30;99.90;;;;;;478897;248;28312;-70
2022/09/11 04:18:04;;;;;;;5.50;5.00;;;14.30;99.90;;;;;;478908;248;28183;-69
2022/09/11 04:20:05;;;;;;;5.03;4.53;;;14.30;99.90;;;;;;478877;246;28827;-69
2022/09/11 04:22:06;;;;;;;5.27;4.50;;;14.30;99.90;;;;;;478965;248;29011;-72
2022/09/11 04:24:07;;;;;;;6.33;4.60;;;14.30;99.90;;;;;;478972;248;29162;-71
2022/09/11 04:26:08;;;;;;;5.07;4.63;;;14.30;99.90;;;;;;478987;248;28149;-71
2022/09/11 04:28:10;;;;;;;5.30;4.80;;;14.30;99.90;;;;;;478995;248;28425;-69
2022/09/11 04:30:11;;;;;;;4.63;4.23;;;14.30;99.90;;;;;;478985;248;28449;-70
2022/09/11 04:32:12;;;;;;;4.67;4.27;;;14.30;99.90;;;;;;479000;248;28341;-69
2022/09/11 04:34:13;;;;;;;4.93;4.23;;;14.30;99.90;;;;;;478974;248;28317;-69
2022/09/11 04:36:18;;;;;;;3.97;3.67;;;14.30;99.90;;;;;;478963;247;28543;-69
2022/09/11 04:38:17;;;;;;;4.57;4.13;;;14.30;99.90;;;;;;478848;248;28743;-69
2022/09/11 04:40:17;;;;;;;4.60;4.20;;;14.30;99.90;;;;;;478893;248;28150;-70
2022/09/11 04:42:18;;;;;;;4.70;4.30;;;14.30;99.90;;;;;;478962;248;28419;-72
2022/09/11 04:44:20;;;;;;;4.30;4.00;;;14.30;99.90;;;;;;478970;248;29172;-70
2022/09/11 04:46:22;;;;;;;4.17;3.87;;;14.30;99.90;;;;;;478820;248;29179;-69
2022/09/11 04:48:22;;;;;;;6.40;3.90;;;14.30;99.90;;;;;;478885;248;28966;-69
2022/09/11 04:50:23;;;;;;;4.40;4.00;;;14.30;99.90;;;;;;478923;248;28703;-70
2022/09/11 04:52:24;;;;;;;4.27;3.97;;;14.30;99.90;;;;;;477424;248;28377;-69
2022/09/11 04:54:26;;;;;;;4.33;3.93;;;14.30;99.90;;;;;;478962;248;28305;-69
2022/09/11 04:56:28;;;;;;;4.57;4.17;;;14.30;99.90;;;;;;478909;248;28221;-70
2022/09/11 04:58:28;;;;;;;4.63;4.27;;;14.30;99.90;;;;;;478932;248;28439;-69
2022/09/11 05:00:30;;;;;;;4.20;3.90;;;14.30;99.90;;;;;;478921;248;28783;-69
2022/09/11 05:02:31;;;;;;;4.53;4.13;;;14.30;99.90;;;;;;478932;248;28265;-69
2022/09/11 05:04:32;;;;;;;4.40;4.10;;;14.30;99.90;;;;;;478966;247;28093;-70
2022/09/11 05:06:33;;;;;;;4.17;3.77;;;14.30;99.90;;;;;;478890;248;28529;-70
2022/09/11 05:08:35;;;;;;;4.70;4.30;;;14.30;99.90;;;;;;478934;248;28385;-69
2022/09/11 05:10:36;;;;;;;7.10;4.57;;;14.30;99.90;;;;;;478935;248;28953;-70
2022/09/11 05:12:37;;;;;;;8.50;4.20;;;14.30;99.90;;;;;;478938;248;29881;-69
2022/09/11 05:14:38;;;;;;;5.97;4.83;;;14.30;99.90;;;;;;478947;248;28855;-69
2022/09/11 05:16:40;;;;;;;4.90;4.50;;;14.30;99.90;;;;;;478887;248;28489;-71
2022/09/11 05:18:41;;;;;;;4.80;4.10;;;14.30;99.90;;;;;;478949;248;28287;-69
2022/09/11 05:20:42;;;;;;;4.97;4.57;;;14.30;99.90;;;;;;478949;248;28452;-70
2022/09/11 05:22:43;;;;;;;4.90;4.40;;;14.30;99.90;;;;;;478904;248;28203;-69
2022/09/11 05:24:45;;;;;;;4.80;4.20;;;14.30;99.90;;;;;;478951;248;28430;-69
2022/09/11 05:26:46;;;;;;;6.33;4.90;;;14.40;99.90;;;;;;478884;248;28235;-71
2022/09/11 05:28:47;;;;;;;4.50;4.10;;;14.30;99.90;;;;;;478922;248;28492;-69
2022/09/11 05:30:48;;;;;;;5.43;4.43;;;14.40;99.90;;;;;;478935;246;28456;-69
2022/09/11 05:32:50;;;;;;;5.07;4.67;;;14.30;99.90;;;;;;478893;248;28180;-69
2022/09/11 05:34:51;;;;;;;4.70;4.30;;;14.30;99.90;;;;;;478961;248;28655;-69
2022/09/11 05:36:52;;;;;;;5.40;4.90;;;14.40;99.90;;;;;;478894;248;29338;-71
2022/09/11 05:38:53;;;;;;;5.13;4.73;;;14.40;99.90;;;;;;478868;246;29176;-70
2022/09/11 05:40:55;;;;;;;5.53;4.87;;;14.40;99.90;;;;;;478805;248;28337;-69
2022/09/11 05:42:56;;;;;;;5.13;4.63;;;14.40;99.90;;;;;;478713;248;28335;-69
2022/09/11 05:44:57;;;;;;;5.33;4.80;;;14.50;99.90;;;;;;478878;248;28504;-69
2022/09/11 05:46:58;;;;;;;5.63;4.63;;;14.40;99.90;;;;;;478888;248;28239;-70
2022/09/11 05:49:00;;;;;;;5.53;5.03;;;14.50;99.90;;;;;;478939;248;28305;-69
2022/09/11 05:51:01;;;;;;;5.50;5.00;;;14.50;99.90;;;;;;478912;247;28778;-70
2022/09/11 05:53:02;;;;;;;4.93;4.53;;;14.50;99.90;;;;;;478975;248;28459;-71
2022/09/11 05:55:03;;;;;;;7.27;5.20;;;14.50;99.90;;;;;;478954;248;28080;-69
2022/09/11 05:57:05;;;;;;;6.60;5.50;;;14.50;99.90;;;;;;478883;248;28468;-69
2022/09/11 05:59:06;;;;;;;6.80;5.33;;;14.60;99.90;;;;;;478893;248;28877;-69
2022/09/11 06:01:07;;;;;;;7.83;5.80;;;14.60;99.90;;;;;;478917;248;28991;-70
2022/09/11 06:03:09;;;;;;;7.03;6.07;;;14.60;99.90;;;;;;478988;248;28803;-72
2022/09/11 06:05:10;;;;;;;5.77;5.27;;;14.60;99.90;;;;;;478957;248;28998;-70
2022/09/11 06:07:11;;;;;;;8.33;6.00;;;14.60;99.90;;;;;;478900;248;28368;-70
2022/09/11 06:09:12;;;;;;;6.50;5.77;;;14.70;99.90;;;;;;478904;246;28721;-68
2022/09/11 06:11:13;;;;;;;6.50;5.90;;;14.60;99.90;;;;;;478931;248;28524;-69
2022/09/11 06:13:17;;;;;;;8.77;5.67;;;14.70;99.90;;;;;;478952;248;28474;-71
2022/09/11 06:15:19;;;;;;;6.70;6.03;;;14.80;99.90;;;;;;478959;247;29333;-72
2022/09/11 06:17:20;;;;;;;6.73;6.13;;;14.80;99.90;;;;;;478898;248;29181;-70
2022/09/11 06:19:21;;;;;;;6.23;5.67;;;14.70;99.90;;;;;;478938;246;29315;-69
2022/09/11 06:21:22;;;;;;;6.30;5.63;;;14.70;99.90;;;;;;478936;248;28808;-70
2022/09/11 06:23:24;;;;;;;6.33;5.73;;;14.80;99.90;;;;;;478943;248;28449;-70
2022/09/11 06:25:25;;;;;;;6.17;5.57;;;14.70;99.90;;;;;;478963;248;28800;-70
2022/09/11 06:27:27;;;;;;;5.53;5.03;;;14.70;99.90;;;;;;478887;248;28814;-69
2022/09/11 06:29:27;;;;;;;5.73;5.23;;;14.80;99.90;;;;;;478899;248;28772;-70
2022/09/11 06:31:29;;;;;;;6.83;6.23;;;14.90;99.90;;;;;;478948;248;28732;-69
2022/09/11 06:33:30;;;;;;;5.90;5.40;;;14.90;99.90;;;;;;478930;248;28841;-69
2022/09/11 06:35:32;;;;;;;6.40;5.80;;;14.90;99.90;;;;;;478957;247;28475;-72
2022/09/11 06:37:32;;;;;;;5.67;5.17;;;14.90;99.90;;;;;;478867;248;28730;-70
2022/09/11 06:39:34;;;;;;;5.70;5.17;;;15.10;99.90;;;;;;478947;248;29343;-70
2022/09/11 06:41:35;;;;;;;5.37;4.97;;;15.10;99.90;;;;;;478944;246;29370;-69
2022/09/11 06:43:36;;;;;;;5.73;5.23;;;15.10;99.90;;;;;;478958;248;29272;-70
2022/09/11 06:45:37;;;;;;;5.60;5.10;;;15.10;99.90;;;;;;478971;248;28757;-72
2022/09/11 06:47:39;;;;;;;7.03;5.50;;;15.10;99.90;;;;;;478961;248;28720;-69
2022/09/11 06:49:40;;;;;;;5.97;5.37;;;15.10;99.90;;;;;;478946;248;28774;-70
2022/09/11 06:51:41;;;;;;;5.70;5.20;;;15.10;99.90;;;;;;478980;248;28741;-70
2022/09/11 06:53:42;;;;;;;5.90;5.40;;;15.10;99.90;;;;;;478960;248;28784;-70
2022/09/11 06:55:44;;;;;;;6.70;5.80;;;15.10;99.90;;;;;;479003;247;29118;-70
2022/09/11 06:57:45;;;;;;;10.03;6.20;;;15.20;99.90;;;;;;478907;248;28772;-70
2022/09/11 06:59:46;;;;;;;7.40;6.63;;;15.20;99.90;;;;;;478969;248;28758;-70
2022/09/11 07:01:49;;;;;;;5.73;5.13;;;15.20;99.90;;;;;;478950;247;28722;-69
2022/09/11 07:03:49;;;;;;;6.67;5.87;;;15.30;99.90;;;;;;478888;248;29233;-69
2022/09/11 07:05:50;;;;;;;5.33;4.83;;;15.20;99.90;;;;;;478951;248;29345;-72
2022/09/11 07:07:51;;;;;;;5.60;5.10;;;15.30;99.90;;;;;;478901;248;29187;-69
2022/09/11 07:09:52;;;;;;;5.70;5.20;;;15.30;99.90;;;;;;478966;248;28831;-71
2022/09/11 07:11:54;;;;;;;5.37;4.87;;;15.50;99.90;;;;;;478952;248;28823;-69
2022/09/11 07:13:55;;;;;;;5.37;4.97;;;15.50;99.90;;;;;;478941;248;28783;-70
2022/09/11 07:15:56;;;;;;;5.67;5.17;;;15.60;99.90;;;;;;478965;248;28747;-69
2022/09/11 07:17:58;;;;;;;5.90;5.33;;;15.70;99.90;;;;;;478931;248;28791;-70
2022/09/11 07:19:59;;;;;;;5.53;5.03;;;15.80;99.90;;;;;;478979;248;28807;-71
2022/09/11 07:22:00;;;;;;;5.17;4.60;;;15.80;99.90;;;;;;478970;246;28742;-69
2022/09/11 07:24:02;;;;;;;6.30;5.70;;;15.90;99.90;;;;;;478981;248;28760;-69
2022/09/11 07:26:02;;;;;;;6.20;5.43;;;15.80;99.90;;;;;;478896;248;28761;-72
2022/09/11 07:28:04;;;;;;;5.23;4.73;;;15.80;99.90;;;;;;478956;248;29219;-69
2022/09/11 07:30:05;;;;;;;5.07;4.67;;;15.90;99.90;;;;;;478979;247;29319;-70
2022/09/11 07:32:06;;;;;;;5.50;5.00;;;15.90;99.90;;;;;;478969;248;29186;-69
2022/09/11 07:34:07;;;;;;;5.37;4.87;;;16.00;99.90;;;;;;478958;248;28782;-70
2022/09/11 07:36:10;;;;;;;5.43;4.93;;;16.00;99.90;;;;;;478924;248;28846;-72
2022/09/11 07:38:10;;;;;;;5.63;5.13;;;16.00;99.90;;;;;;478896;248;28809;-69
2022/09/11 07:40:11;;;;;;;5.00;4.60;;;16.00;99.90;;;;;;478910;248;28820;-71
2022/09/11 07:42:12;;;;;;;5.73;5.30;;;16.00;99.90;;;;;;478954;248;28707;-70
2022/09/11 07:44:15;;;;;;;5.50;5.10;;;16.00;99.90;;;;;;478965;248;28764;-69
2022/09/11 07:46:15;;;;;;;4.77;4.20;;;16.00;99.90;;;;;;478873;248;29111;-72
2022/09/11 07:48:16;;;;;;;4.63;4.23;;;16.10;99.90;;;;;;478979;248;28727;-70
2022/09/11 07:50:17;;;;;;;4.83;4.33;;;16.20;99.90;;;;;;478952;248;28788;-70
2022/09/11 07:52:19;;;;;;;5.27;4.77;;;16.30;99.90;;;;;;478964;248;29236;-69
2022/09/11 07:54:20;;;;;;;5.20;4.73;;;16.30;99.90;;;;;;478942;248;29238;-71
2022/09/11 07:56:25;;;;;;;5.23;4.83;;;16.30;99.90;;;;;;478901;248;29391;-70
2022/09/11 07:58:23;;;;;;;5.80;4.80;;;16.30;99.90;;;;;;478732;248;29285;-70
2022/09/11 08:00:24;;;;;;;4.93;4.53;;;16.30;99.90;;;;;;478975;246;28836;-71
2022/09/11 08:02:25;;;;;;;7.30;4.40;;;16.20;99.90;;;;;;478967;248;28840;-70
2022/09/11 08:04:27;;;;;;;5.37;4.47;;;16.30;99.90;;;;;;478955;248;28859;-70
2022/09/11 08:06:27;;;;;;;5.37;4.93;;;16.30;99.90;;;;;;478868;248;28896;-69
2022/09/11 08:08:29;;;;;;;5.77;5.27;;;16.20;99.90;;;;;;478956;248;28793;-69
2022/09/11 08:10:30;;;;;;;6.03;5.17;;;16.20;99.90;;;;;;478953;248;28755;-70
2022/09/11 08:12:32;;;;;;;5.67;5.13;;;16.20;99.90;;;;;;478943;248;28809;-69
2022/09/11 08:14:32;;;;;;;5.10;4.70;;;16.10;99.90;;;;;;478957;248;28818;-69
2022/09/11 08:16:37;;;;;;;4.63;4.23;;;16.10;99.90;;;;;;478928;248;28867;-71
2022/09/11 08:18:38;;;;;;;7.03;5.67;;;16.00;99.90;;;;;;478964;248;29156;-72
2022/09/11 08:20:39;;;;;;;5.17;4.67;;;16.00;99.90;;;;;;478958;248;28827;-69
2022/09/11 08:22:40;;;;;;;5.30;4.80;;;15.90;99.90;;;;;;478959;246;28832;-70
2022/09/11 08:24:41;;;;;;;5.17;4.67;;;15.90;99.90;;;;;;478945;248;29176;-69
2022/09/11 08:26:43;;;;;;;4.60;4.20;;;15.90;99.90;;;;;;478891;248;29242;-70
2022/09/11 08:28:44;;;;;;;4.57;4.27;;;16.00;99.90;;;;;;478961;248;29255;-72
2022/09/11 08:30:45;;;;;;;4.57;4.27;;;16.10;99.90;;;;;;478977;248;28842;-70
2022/09/11 08:32:47;;;;;;;6.23;4.83;;;16.20;99.90;;;;;;478958;246;28788;-70
2022/09/11 08:34:48;;;;;;;4.73;4.30;;;16.30;99.90;;;;;;478963;248;28705;-69
2022/09/11 08:36:50;;;;;;;4.87;4.47;;;16.40;99.90;;;;;;478907;248;28763;-69
2022/09/11 08:38:51;;;;;;;5.17;4.77;;;16.40;99.90;;;;;;478887;248;29092;-72
2022/09/11 08:40:52;;;;;;;4.17;3.87;;;16.40;99.90;;;;;;478931;248;28712;-70
2022/09/11 08:42:53;;;;;;;5.17;4.63;;;16.30;99.90;;;;;;478931;248;28850;-70
2022/09/11 08:44:54;;;;;;;4.83;4.43;;;16.40;99.90;;;;;;478958;248;28812;-69
2022/09/11 08:46:55;;;;;;;5.10;4.60;;;16.50;99.90;;;;;;478905;248;28862;-69
2022/09/11 08:48:57;;;;;;;4.43;4.13;;;16.70;99.90;;;;;;478961;246;29355;-72
2022/09/11 08:50:58;;;;;;;4.37;4.07;;;16.90;99.90;;;;;;478969;248;29167;-69
2022/09/11 08:52:59;;;;;;;5.50;4.77;;;17.20;99.90;;;;;;478974;248;29240;-71
2022/09/11 08:55:01;;;;;;;4.57;4.17;;;17.30;99.90;;;;;;478962;248;28709;-69
2022/09/11 08:57:02;;;;;;;5.40;4.57;;;17.40;99.90;;;;;;478789;247;28775;-70
2022/09/11 08:59:03;;;;;;;5.13;4.30;;;17.20;99.90;;;;;;478992;248;28857;-71
2022/09/11 09:01:04;;;;;;;5.10;4.70;;;17.30;99.90;;;;;;478972;248;28720;-70
2022/09/11 09:03:06;;;;;;;4.93;4.43;;;17.20;99.90;;;;;;478964;248;28751;-71
2022/09/11 09:05:07;;;;;;;5.07;4.63;;;17.30;99.90;;;;;;478959;248;28795;-69
2022/09/11 09:07:08;;;;;;;4.73;4.33;;;17.30;99.90;;;;;;478884;248;28864;-70
2022/09/11 09:09:09;;;;;;;4.63;4.23;;;17.30;99.90;;;;;;478938;246;28792;-73
2022/09/11 09:11:10;;;;;;;5.00;4.60;;;17.20;99.90;;;;;;478979;248;28787;-70
2022/09/11 09:13:14;;;;;;;6.63;5.10;;;17.20;99.90;;;;;;478945;247;29221;-70
2022/09/11 09:15:13;;;;;;;4.60;4.20;;;17.10;99.90;;;;;;478820;248;29167;-69
2022/09/11 09:17:14;;;;;;;4.97;4.37;;;17.00;99.90;;;;;;478900;248;29266;-69
2022/09/11 09:19:15;;;;;;;4.40;3.97;;;17.00;99.90;;;;;;478957;248;29275;-74
2022/09/11 09:21:19;;;;;;;4.43;4.03;;;17.00;99.90;;;;;;478946;248;28725;-69
2022/09/11 09:23:18;;;;;;;4.63;4.23;;;17.00;99.90;;;;;;478792;248;28759;-71
2022/09/11 09:25:19;;;;;;;5.70;4.50;;;17.00;99.90;;;;;;478969;246;28732;-69
2022/09/11 09:27:22;;;;;;;5.20;4.70;;;17.10;99.90;;;;;;478896;248;28748;-70
2022/09/11 09:29:24;;;;;;;4.60;4.20;;;17.10;99.90;;;;;;478910;248;28771;-70
2022/09/11 09:31:25;;;;;;;4.40;4.00;;;17.20;99.90;;;;;;478958;248;28764;-70
2022/09/11 09:33:27;;;;;;;4.40;4.00;;;17.30;99.90;;;;;;478970;248;28732;-69
2022/09/11 09:35:28;;;;;;;4.40;4.00;;;17.50;99.90;;;;;;478976;248;29237;-70
2022/09/11 09:37:29;;;;;;;4.33;3.97;;;17.60;99.90;;;;;;478796;248;28724;-70
2022/09/11 09:39:30;;;;;;;4.00;3.70;;;17.60;99.90;;;;;;478960;248;28767;-70
2022/09/11 09:41:32;;;;;;;4.27;3.87;;;17.50;99.90;;;;;;478963;248;29304;-69
2022/09/11 09:43:33;;;;;;;4.10;3.70;;;17.40;99.90;;;;;;478980;246;29276;-70
2022/09/11 09:45:35;;;;;;;3.50;3.20;;;17.50;99.90;;;;;;478967;248;29338;-70
2022/09/11 09:47:36;;;;;;;3.60;3.30;;;17.60;99.90;;;;;;478859;248;29343;-72
2022/09/11 09:49:37;;;;;;;4.00;3.70;;;17.70;99.90;;;;;;478936;246;28772;-70
2022/09/11 09:51:41;;;;;;;4.07;3.77;;;17.90;99.90;;;;;;478947;248;28797;-69
2022/09/11 09:53:42;;;;;;;4.13;3.83;;;17.90;99.90;;;;;;478949;248;28741;-73
2022/09/11 09:55:46;;;;;;;3.63;3.33;;;18.10;99.90;;;;;;478962;248;28840;-69
2022/09/11 09:57:46;;;;;;;3.90;3.50;;;18.20;99.90;;;;;;478735;248;29057;-70
2022/09/11 09:59:46;;;;;;;4.17;3.87;;;18.20;99.90;;;;;;478892;248;28709;-70
2022/09/11 10:01:48;;;;;;;3.93;3.63;;;17.90;99.90;;;;;;478936;248;29251;-69
2022/09/11 10:03:48;;;;;;;3.90;3.60;;;17.70;99.90;;;;;;478900;248;29339;-72
2022/09/11 10:05:50;;;;;;;3.23;3.03;;;17.60;99.90;;;;;;478941;247;29195;-69
2022/09/11 10:07:51;;;;;;;4.30;3.90;;;17.60;99.90;;;;;;478878;248;28750;-70
2022/09/11 10:09:53;;;;;;;4.43;4.03;;;17.40;99.90;;;;;;478891;248;28717;-69
2022/09/11 10:11:54;;;;;;;3.90;3.60;;;17.40;99.90;;;;;;478895;248;28846;-70
2022/09/11 10:13:56;;;;;;;4.60;4.20;;;17.30;99.90;;;;;;478920;248;28753;-73
2022/09/11 10:15:58;;;;;;;4.30;3.90;;;17.20;99.90;;;;;;478902;248;28721;-70
2022/09/11 10:17:57;;;;;;;4.93;4.53;;;17.20;99.90;;;;;;478730;248;28759;-70
2022/09/11 10:19:59;;;;;;;3.93;3.63;;;17.30;99.90;;;;;;478971;248;28830;-69
2022/09/11 10:22:00;;;;;;;4.60;4.20;;;17.30;99.90;;;;;;478767;248;29118;-69
2022/09/11 10:24:01;;;;;;;4.37;3.97;;;17.30;99.90;;;;;;478990;246;28880;-71
2022/09/11 10:26:02;;;;;;;3.87;3.60;;;17.40;99.90;;;;;;478884;248;29177;-69
2022/09/11 10:28:04;;;;;;;4.60;4.20;;;17.50;99.90;;;;;;478852;248;29231;-69
2022/09/11 10:30:05;;;;;;;6.50;4.23;;;17.60;99.90;;;;;;478979;248;29630;-70
2022/09/11 10:32:08;;;;;;;4.30;3.87;;;17.70;99.90;;;;;;479009;248;29193;-69